Time;durP1;ratioP1;P1;durP2;ratioP2;P2;SDS_P1;SDS_P2;PMS_P1;PMS_P2;Temp;Humidity;BMP_temperature;BMP_pressure;BME280_temperature;BME280_humidity;BME280_pressure;Samples;Min_cycle;Max_cycle;Signal;HPM_P1;HPM_P2
2022/10/23 00:01:18;;;;;;;29.33;25.65;;;;;;;9.46;100.00;99821.75;4953463;29;20027;-83
2022/10/23 00:03:43;;;;;;;32.47;24.92;;;;;;;9.36;100.00;99810.03;4953289;29;20118;-82
2022/10/23 00:06:09;;;;;;;33.05;25.98;;;;;;;9.47;100.00;99825.19;4953504;29;20182;-83
2022/10/23 00:08:35;;;;;;;30.42;24.05;;;;;;;9.43;100.00;99808.03;4953059;29;20114;-82
2022/10/23 00:11:04;;;;;;;30.02;23.35;;;;;;;9.46;100.00;99794.91;4937207;29;20491;-82
2022/10/23 00:13:29;;;;;;;27.80;22.83;;;;;;;9.42;100.00;99785.53;4953146;29;20483;-82
2022/10/23 00:15:55;;;;;;;27.95;22.50;;;;;;;9.50;100.00;99804.28;4953220;29;20027;-82
2022/10/23 00:18:20;;;;;;;25.85;21.23;;;;;;;9.47;100.00;99799.19;4952255;28;20071;-82
2022/10/23 00:20:45;;;;;;;27.48;22.58;;;;;;;9.46;100.00;99803.56;4953476;29;20506;-82
2022/10/23 00:23:11;;;;;;;25.23;20.23;;;;;;;9.43;100.00;99801.06;4944949;28;20034;-82
2022/10/23 00:25:37;;;;;;;30.05;22.75;;;;;;;9.35;100.00;99792.72;4994239;28;20054;-83
2022/10/23 00:28:03;;;;;;;25.70;20.50;;;;;;;9.30;100.00;99789.47;4994387;28;20084;-83
2022/10/23 00:30:28;;;;;;;29.58;22.38;;;;;;;9.25;100.00;99789.66;4994110;28;20030;-82
2022/10/23 00:32:54;;;;;;;23.48;20.95;;;;;;;9.28;100.00;99798.25;4976596;28;20026;-82
2022/10/23 00:35:19;;;;;;;26.17;22.50;;;;;;;9.18;100.00;99795.13;4976420;28;20030;-82
2022/10/23 00:37:44;;;;;;;24.10;21.50;;;;;;;9.22;100.00;99801.91;4993876;28;20022;-83
2022/10/23 00:40:11;;;;;;;28.80;22.48;;;;;;;9.22;100.00;99800.16;4994334;28;20057;-83
2022/10/23 00:42:36;;;;;;;32.28;24.48;;;;;;;9.16;100.00;99790.00;4993738;28;20026;-83
2022/10/23 00:45:29;;;;;;;28.73;24.15;;;;;;;9.09;100.00;99778.16;4993941;28;20060;-82
2022/10/23 00:47:55;;;;;;;31.90;27.67;;;;;;;9.11;100.00;99784.16;4993775;28;20026;-83
2022/10/23 00:50:23;;;;;;;32.92;26.23;;;;;;;9.15;100.00;99790.91;4993812;28;20523;-83
2022/10/23 00:52:51;;;;;;;29.17;25.08;;;;;;;9.15;100.00;99803.06;4993600;28;20422;-83
2022/10/23 00:55:19;;;;;;;31.45;27.02;;;;;;;9.07;100.00;99800.75;4993754;28;20547;-83
2022/10/23 00:57:47;;;;;;;33.20;26.10;;;;;;;9.08;100.00;99804.19;4993315;28;20473;-83
2022/10/23 01:00:17;;;;;;;26.67;23.48;;;;;;;9.00;100.00;99791.50;4993611;28;20038;-83
2022/10/23 01:02:42;;;;;;;27.75;22.83;;;;;;;9.01;100.00;99803.56;4993417;28;20084;-83
2022/10/23 01:05:08;;;;;;;27.95;22.48;;;;;;;8.98;100.00;99795.91;4993665;28;20026;-83
2022/10/23 01:07:49;;;;;;;21.92;19.33;;;;;;;9.01;100.00;99806.16;4993143;28;20421;-83
2022/10/23 01:10:26;;;;;;;24.48;20.15;;;;;;;9.03;100.00;99813.94;4975810;28;20030;-83
2022/10/23 01:13:07;;;;;;;24.25;20.75;;;;;;;8.98;100.00;99808.91;4993334;28;20053;-83
2022/10/23 01:15:54;;;;;;;24.55;20.30;;;;;;;8.95;100.00;99822.00;4993135;28;20351;-83
2022/10/23 01:18:28;;;;;;;22.65;19.52;;;;;;;8.85;100.00;99813.72;4993249;28;20030;-83
2022/10/23 01:21:07;;;;;;;24.33;19.83;;;;;;;8.90;100.00;99821.34;4975598;28;20018;-83
2022/10/23 01:23:43;;;;;;;25.48;20.05;;;;;;;8.92;100.00;99812.56;4992881;28;20382;-83
2022/10/23 01:26:50;;;;;;;20.30;17.50;;;;;;;8.93;100.00;99814.28;4993317;28;20544;-82
2022/10/23 01:29:18;;;;;;;21.42;17.85;;;;;;;8.94;100.00;99820.31;4951252;28;20027;-82
2022/10/23 01:32:03;;;;;;;22.27;18.35;;;;;;;8.88;100.00;99816.19;4951668;29;20047;-82
2022/10/23 01:34:49;;;;;;;22.80;19.40;;;;;;;8.86;100.00;99824.94;4952012;29;20466;-82
2022/10/23 01:37:22;;;;;;;22.08;19.02;;;;;;;8.80;100.00;99826.00;4935711;29;20035;-82
2022/10/23 01:39:51;;;;;;;23.70;19.48;;;;;;;8.84;100.00;99821.53;4951541;29;20035;-83
2022/10/23 01:42:23;;;;;;;23.85;18.95;;;;;;;8.76;100.00;99808.84;4951902;29;20027;-83
2022/10/23 01:45:07;;;;;;;28.20;21.85;;;;;;;8.85;100.00;99826.69;4951615;29;20105;-83
2022/10/23 01:47:34;;;;;;;32.60;22.67;;;;;;;8.87;100.00;99819.69;4951442;29;20027;-83
2022/10/23 01:50:04;;;;;;;37.13;24.58;;;;;;;8.91;100.00;99817.81;4935493;29;20051;-82
2022/10/23 01:52:30;;;;;;;31.80;23.65;;;;;;;8.89;100.00;99824.81;4951552;29;20066;-82
2022/10/23 01:54:59;;;;;;;33.53;23.40;;;;;;;8.90;100.00;99827.38;4951700;29;20039;-83
2022/10/23 01:57:27;;;;;;;35.78;24.10;;;;;;;8.85;100.00;99828.41;4951565;29;20062;-82
2022/10/23 02:00:00;;;;;;;33.08;23.02;;;;;;;8.79;100.00;99815.69;4951506;29;20062;-83
2022/10/23 02:02:29;;;;;;;33.65;25.02;;;;;;;8.80;100.00;99823.41;4960044;28;20037;-82
2022/10/23 02:05:02;;;;;;;32.35;24.80;;;;;;;8.80;100.00;99827.75;4992751;28;20506;-83
2022/10/23 02:07:28;;;;;;;33.85;24.73;;;;;;;8.72;100.00;99825.44;4992371;28;20023;-83
2022/10/23 02:09:54;;;;;;;31.83;24.25;;;;;;;8.73;100.00;99832.34;4992673;28;20105;-82
2022/10/23 02:12:58;;;;;;;31.83;24.15;;;;;;;8.69;100.00;99838.53;4992638;28;20110;-83
2022/10/23 02:15:44;;;;;;;30.95;22.42;;;;;;;8.63;100.00;99839.59;4992466;28;20018;-83
2022/10/23 02:18:44;;;;;;;27.25;21.73;;;;;;;8.61;100.00;99841.41;4975025;28;20030;-82
2022/10/23 02:21:15;;;;;;;25.27;21.52;;;;;;;8.56;100.00;99838.13;4935203;29;20031;-82
2022/10/23 02:23:55;;;;;;;27.35;21.35;;;;;;;8.54;100.00;99842.50;4951050;29;20195;-82
2022/10/23 02:26:26;;;;;;;25.27;21.17;;;;;;;8.42;100.00;99829.97;4935282;29;20044;-82
2022/10/23 02:28:59;;;;;;;24.75;21.45;;;;;;;8.43;100.00;99829.94;4951129;29;20028;-83
2022/10/23 02:31:24;;;;;;;24.08;19.58;;;;;;;8.48;100.00;99841.00;4951521;29;20086;-82
2022/10/23 02:33:50;;;;;;;23.15;19.00;;;;;;;8.49;100.00;99839.25;4950956;29;20023;-83
2022/10/23 02:36:18;;;;;;;25.15;19.10;;;;;;;8.42;100.00;99836.00;4951265;29;20043;-83
2022/10/23 02:38:44;;;;;;;21.27;18.52;;;;;;;8.45;100.00;99841.09;4950976;29;20138;-82
2022/10/23 02:41:57;;;;;;;22.48;18.05;;;;;;;8.47;100.00;99846.25;4952411;28;20046;-82
2022/10/23 02:45:01;;;;;;;20.38;18.05;;;;;;;8.40;100.00;99839.56;4897905;29;20465;-82
2022/10/23 02:47:41;;;;;;;23.55;18.20;;;;;;;8.42;100.00;99842.94;4860536;29;20037;-83
2022/10/23 02:50:13;;;;;;;21.42;18.33;;;;;;;8.36;100.00;99833.59;4860482;29;20137;-82
2022/10/23 02:52:58;;;;;;;23.30;17.13;;;;;;;8.43;100.00;99840.31;4844792;29;20496;-82
2022/10/23 02:55:42;;;;;;;19.52;17.42;;;;;;;8.42;100.00;99837.75;4860567;29;20072;-83
2022/10/23 02:58:37;;;;;;;21.38;16.35;;;;;;;8.48;100.00;99846.19;4850202;29;20037;-83
2022/10/23 03:01:15;;;;;;;20.50;17.00;;;;;;;8.51;100.00;99850.41;4841940;29;20418;-82
2022/10/23 03:03:49;;;;;;;18.83;15.90;;;;;;;8.52;100.00;99854.72;4826247;29;20090;-82
2022/10/23 03:06:15;;;;;;;19.73;17.02;;;;;;;8.48;100.00;99843.59;4841904;29;20153;-82
2022/10/23 03:08:51;;;;;;;18.25;16.15;;;;;;;8.53;100.00;99843.41;4841621;29;20601;-82
2022/10/23 03:11:16;;;;;;;21.77;16.27;;;;;;;8.59;100.00;99852.72;4841788;29;20053;-82
2022/10/23 03:13:42;;;;;;;19.95;15.95;;;;;;;8.65;100.00;99853.38;4841511;29;20030;-82
2022/10/23 03:16:07;;;;;;;19.95;15.85;;;;;;;8.59;100.00;99853.56;4841948;29;20030;-83
2022/10/23 03:18:32;;;;;;;19.02;15.27;;;;;;;8.63;100.00;99849.97;4841441;29;20485;-82
2022/10/23 03:20:58;;;;;;;18.67;15.88;;;;;;;8.59;100.00;99834.56;4878379;29;20047;-83
2022/10/23 03:23:23;;;;;;;16.20;14.48;;;;;;;8.64;100.00;99851.69;4929945;28;20394;-82
2022/10/23 03:25:49;;;;;;;19.05;15.55;;;;;;;8.60;100.00;99859.66;4995147;28;20026;-82
2022/10/23 03:28:14;;;;;;;18.10;15.45;;;;;;;8.58;100.00;99851.03;4977722;28;20040;-82
2022/10/23 03:30:39;;;;;;;19.27;14.80;;;;;;;8.58;100.00;99843.25;4977710;28;20058;-82
2022/10/23 03:33:05;;;;;;;18.15;13.88;;;;;;;8.52;100.00;99844.34;4995269;28;20018;-83
2022/10/23 03:35:30;;;;;;;15.48;13.40;;;;;;;8.60;100.00;99857.03;4995265;28;20438;-83
2022/10/23 03:37:55;;;;;;;16.50;13.95;;;;;;;8.56;100.00;99847.66;4977408;28;20533;-82
2022/10/23 03:40:21;;;;;;;17.27;15.00;;;;;;;8.59;100.00;99855.34;4994994;28;20049;-83
2022/10/23 03:42:46;;;;;;;16.40;14.23;;;;;;;8.66;100.00;99857.66;4994669;28;20024;-82
2022/10/23 03:45:12;;;;;;;19.27;14.70;;;;;;;8.72;100.00;99854.88;4995493;28;20031;-83
2022/10/23 03:47:39;;;;;;;15.93;14.07;;;;;;;8.75;100.00;99851.28;4995149;28;20053;-83
2022/10/23 03:50:07;;;;;;;14.73;13.13;;;;;;;8.80;100.00;99856.31;4994844;28;20057;-83
2022/10/23 03:52:32;;;;;;;16.35;13.57;;;;;;;8.80;100.00;99862.34;4993870;28;20351;-83
2022/10/23 03:54:58;;;;;;;20.20;14.57;;;;;;;8.74;100.00;99845.25;4976987;28;20037;-84
2022/10/23 03:57:23;;;;;;;15.55;13.27;;;;;;;8.74;100.00;99839.22;4994585;28;20104;-84
2022/10/23 03:59:49;;;;;;;15.15;13.48;;;;;;;8.81;100.00;99853.69;4994679;28;20026;-83
2022/10/23 04:02:14;;;;;;;14.93;13.40;;;;;;;8.84;100.00;99848.34;4977296;28;20406;-83
2022/10/23 04:04:39;;;;;;;16.15;14.00;;;;;;;8.85;100.00;99846.59;4994571;28;20026;-83
2022/10/23 04:07:05;;;;;;;20.15;14.20;;;;;;;8.76;100.00;99821.81;4994716;28;20106;-84
2022/10/23 04:09:30;;;;;;;16.63;14.45;;;;;;;8.84;100.00;99834.53;4977098;28;20037;-84
2022/10/23 04:11:56;;;;;;;15.68;13.98;;;;;;;8.86;100.00;99832.75;4994397;28;20026;-84
2022/10/23 04:14:21;;;;;;;18.52;15.88;;;;;;;8.88;100.00;99836.97;4994550;28;20028;-84
2022/10/23 04:16:46;;;;;;;20.33;16.17;;;;;;;8.84;100.00;99822.38;4994101;28;20500;-84
2022/10/23 04:19:12;;;;;;;20.35;17.20;;;;;;;8.84;100.00;99822.38;4994537;28;20026;-84
2022/10/23 04:21:37;;;;;;;24.27;18.33;;;;;;;8.82;100.00;99818.16;4994217;28;20024;-84
2022/10/23 04:24:03;;;;;;;17.95;15.70;;;;;;;8.79;100.00;99821.72;4976763;28;20030;-84
2022/10/23 04:26:29;;;;;;;19.20;15.70;;;;;;;8.78;100.00;99832.16;4994434;28;20397;-84
2022/10/23 04:28:54;;;;;;;19.13;15.20;;;;;;;8.74;100.00;99829.69;4994132;28;20019;-84
2022/10/23 04:31:19;;;;;;;17.92;14.65;;;;;;;8.73;100.00;99835.78;4994335;28;20522;-84
2022/10/23 04:33:45;;;;;;;17.52;15.68;;;;;;;8.77;100.00;99833.91;4993958;28;20023;-84
2022/10/23 04:36:10;;;;;;;17.00;15.20;;;;;;;8.76;100.00;99837.41;4994013;28;20022;-84
2022/10/23 04:38:36;;;;;;;16.75;14.57;;;;;;;8.68;100.00;99824.72;4994355;28;20030;-84
2022/10/23 04:41:01;;;;;;;19.67;15.55;;;;;;;8.68;100.00;99829.03;4993796;28;20080;-84
2022/10/23 04:43:26;;;;;;;18.13;15.52;;;;;;;8.73;100.00;99847.91;4993687;28;20030;-84
2022/10/23 04:45:52;;;;;;;19.38;16.85;;;;;;;8.76;100.00;99840.00;4993804;28;20050;-84
2022/10/23 04:48:17;;;;;;;29.48;23.70;;;;;;;8.73;100.00;99828.00;4993895;28;20029;-83
2022/10/23 04:50:43;;;;;;;32.08;23.00;;;;;;;8.83;100.00;99836.28;4995779;28;20512;-83
2022/10/23 04:53:08;;;;;;;32.28;24.13;;;;;;;8.91;100.00;99841.19;5013612;28;20063;-83
2022/10/23 04:55:34;;;;;;;41.33;29.85;;;;;;;8.96;100.00;99844.47;4995658;28;20113;-83
2022/10/23 04:57:59;;;;;;;27.40;21.08;;;;;;;8.92;100.00;99830.75;5012810;28;20377;-83
2022/10/23 05:00:24;;;;;;;24.92;20.63;;;;;;;9.08;100.00;99853.56;5013320;28;20103;-83
2022/10/23 05:02:50;;;;;;;29.95;23.38;;;;;;;9.07;100.00;99846.69;4995455;28;20018;-83
2022/10/23 05:05:15;;;;;;;42.95;30.15;;;;;;;9.10;100.00;99851.75;5012988;28;20027;-83
2022/10/23 05:07:41;;;;;;;46.85;29.70;;;;;;;9.13;100.00;99862.03;5012872;28;20030;-83
2022/10/23 05:10:06;;;;;;;38.58;27.83;;;;;;;9.15;100.00;99857.66;4995366;28;20343;-83
2022/10/23 05:12:32;;;;;;;35.75;25.95;;;;;;;9.23;100.00;99863.41;5012892;28;20032;-82
2022/10/23 05:14:57;;;;;;;34.15;23.30;;;;;;;9.19;100.00;99860.06;5012965;28;20022;-83
2022/10/23 05:17:31;;;;;;;30.20;22.35;;;;;;;9.25;100.00;99871.97;5012887;28;20022;-83
2022/10/23 05:20:01;;;;;;;26.35;20.52;;;;;;;9.22;100.00;99885.91;5012705;28;20034;-83
2022/10/23 05:22:31;;;;;;;29.08;21.50;;;;;;;9.17;100.00;99879.22;5013074;28;20030;-83
2022/10/23 05:24:57;;;;;;;28.38;20.83;;;;;;;9.00;100.00;99867.69;4971068;28;20034;-83
2022/10/23 05:27:23;;;;;;;25.02;20.10;;;;;;;8.99;100.00;99873.78;4971500;28;20038;-83
2022/10/23 05:29:48;;;;;;;24.15;18.85;;;;;;;9.03;100.00;99882.31;4971109;28;20043;-82
2022/10/23 05:32:15;;;;;;;26.15;21.38;;;;;;;8.99;100.00;99883.34;4971393;28;20023;-83
2022/10/23 05:34:41;;;;;;;24.77;20.55;;;;;;;8.98;100.00;99879.91;4971011;28;20038;-83
2022/10/23 05:37:09;;;;;;;23.20;19.08;;;;;;;8.95;100.00;99880.00;4971171;28;20374;-83
2022/10/23 05:39:35;;;;;;;25.25;20.15;;;;;;;8.90;100.00;99865.50;4971120;28;20046;-83
2022/10/23 05:42:00;;;;;;;26.13;19.27;;;;;;;8.89;100.00;99867.25;4970885;28;20577;-83
2022/10/23 05:44:25;;;;;;;24.83;18.92;;;;;;;8.91;100.00;99877.56;4971096;28;20065;-83
2022/10/23 05:46:51;;;;;;;20.15;17.35;;;;;;;8.93;100.00;99871.44;4970895;28;20026;-83
2022/10/23 05:49:16;;;;;;;18.42;16.45;;;;;;;8.92;100.00;99876.66;4970804;28;20402;-83
2022/10/23 05:51:42;;;;;;;22.25;17.67;;;;;;;8.87;100.00;99861.25;4970769;28;20427;-83
2022/10/23 05:54:08;;;;;;;20.77;17.20;;;;;;;8.87;100.00;99858.66;4954679;28;20034;-83
2022/10/23 05:56:34;;;;;;;20.42;15.93;;;;;;;8.96;100.00;99873.03;5002850;28;20026;-83
2022/10/23 05:59:00;;;;;;;20.23;16.55;;;;;;;8.98;100.00;99869.50;5012273;28;20033;-83
2022/10/23 06:01:25;;;;;;;20.50;17.20;;;;;;;8.95;100.00;99866.16;5012762;28;20528;-83
2022/10/23 06:03:51;;;;;;;27.58;16.73;;;;;;;8.98;100.00;99871.25;5011945;28;20022;-83
2022/10/23 06:06:16;;;;;;;21.77;17.50;;;;;;;9.03;100.00;99873.69;5012243;28;20374;-83
2022/10/23 06:08:41;;;;;;;21.35;17.33;;;;;;;9.04;100.00;99870.19;4994488;28;20026;-83
2022/10/23 06:11:12;;;;;;;20.27;17.92;;;;;;;9.07;100.00;99863.13;5012124;28;20022;-84
2022/10/23 06:13:38;;;;;;;19.83;16.70;;;;;;;9.19;100.00;99869.63;5012355;28;20420;-83
2022/10/23 06:16:08;;;;;;;20.05;17.35;;;;;;;9.17;100.00;99846.28;5013102;28;20022;-83
2022/10/23 06:18:34;;;;;;;21.17;17.23;;;;;;;9.17;100.00;99853.22;5016130;28;20057;-83
2022/10/23 06:21:00;;;;;;;23.35;18.25;;;;;;;9.31;100.00;99873.47;5015898;28;20638;-83
2022/10/23 06:23:26;;;;;;;20.13;17.65;;;;;;;9.32;100.00;99876.03;5016184;28;20440;-83
2022/10/23 06:25:55;;;;;;;21.38;17.38;;;;;;;9.35;100.00;99860.31;5015827;28;20465;-83
2022/10/23 06:28:21;;;;;;;20.25;18.00;;;;;;;9.45;100.00;99868.63;5016197;28;20026;-83
2022/10/23 06:30:46;;;;;;;19.95;16.95;;;;;;;9.47;100.00;99865.03;5015986;28;20104;-83
2022/10/23 06:33:12;;;;;;;20.27;16.88;;;;;;;9.60;100.00;99865.41;5016276;28;20030;-83
2022/10/23 06:35:37;;;;;;;24.58;20.25;;;;;;;9.87;100.00;99862.66;5016172;28;20025;-83
2022/10/23 06:38:02;;;;;;;26.73;19.75;;;;;;;10.29;100.00;99874.84;5015510;28;20387;-83
2022/10/23 06:40:28;;;;;;;20.92;17.58;;;;;;;10.65;100.00;99869.81;5016313;28;20032;-83
2022/10/23 06:42:57;;;;;;;21.35;17.70;;;;;;;11.08;100.00;99886.16;4998095;28;20424;-83
2022/10/23 06:45:22;;;;;;;22.70;17.17;;;;;;;11.30;100.00;99859.97;4998287;28;20045;-83
2022/10/23 06:47:51;;;;;;;20.42;17.70;;;;;;;12.45;100.00;99884.00;5015478;28;20129;-83
2022/10/23 06:50:16;;;;;;;24.38;18.70;;;;;;;12.73;100.00;99893.88;5005088;28;20479;-83
2022/10/23 06:52:42;;;;;;;20.65;16.85;;;;;;;12.80;100.00;99904.84;4995966;28;20025;-83
2022/10/23 06:55:08;;;;;;;22.25;17.75;;;;;;;12.92;100.00;99891.16;4995936;28;20022;-83
2022/10/23 06:57:33;;;;;;;27.75;19.58;;;;;;;12.99;100.00;99900.38;4996027;28;20022;-83
2022/10/23 06:59:59;;;;;;;28.52;20.85;;;;;;;12.99;100.00;99900.38;4995907;28;20057;-83
2022/10/23 07:02:24;;;;;;;18.92;16.77;;;;;;;12.89;100.00;99901.75;4995811;28;20022;-83
2022/10/23 07:04:49;;;;;;;19.40;15.82;;;;;;;12.72;100.00;99898.28;4995522;28;20048;-83
2022/10/23 07:07:15;;;;;;;18.88;15.27;;;;;;;12.94;100.00;99905.00;4995885;28;20026;-83
2022/10/23 07:09:40;;;;;;;16.58;13.48;;;;;;;13.20;100.00;99901.00;4978400;28;20381;-83
2022/10/23 07:12:06;;;;;;;15.57;12.55;;;;;;;13.36;100.00;99903.69;4995548;28;20078;-83
2022/10/23 07:14:31;;;;;;;12.90;11.50;;;;;;;13.32;100.00;99889.91;4995708;28;20022;-84
2022/10/23 07:16:57;;;;;;;14.57;10.43;;;;;;;13.60;100.00;99902.31;4995152;28;20023;-84
2022/10/23 07:19:22;;;;;;;12.80;11.35;;;;;;;13.67;100.00;99895.81;4995432;28;20034;-84
2022/10/23 07:21:49;;;;;;;11.88;10.70;;;;;;;13.65;100.00;99896.81;4995172;28;20052;-84
2022/10/23 07:24:14;;;;;;;13.65;10.95;;;;;;;13.69;100.00;99901.84;4978131;28;20477;-83
2022/10/23 07:26:40;;;;;;;14.60;11.18;;;;;;;13.63;100.00;99898.69;4995245;28;20022;-84
2022/10/23 07:29:06;;;;;;;13.40;11.13;;;;;;;13.52;100.00;99887.97;4995177;28;20714;-84
2022/10/23 07:31:31;;;;;;;12.20;10.75;;;;;;;13.36;100.00;99882.75;4995296;28;20018;-84
2022/10/23 07:33:57;;;;;;;11.50;10.30;;;;;;;13.32;100.00;99896.94;4994899;28;20030;-83
2022/10/23 07:36:22;;;;;;;13.10;11.02;;;;;;;13.40;100.00;99906.03;4995299;28;20169;-83
2022/10/23 07:38:49;;;;;;;13.63;11.43;;;;;;;13.73;100.00;99894.63;4995249;28;20033;-83
2022/10/23 07:41:15;;;;;;;12.32;10.50;;;;;;;13.93;100.00;99898.75;4995188;28;20022;-83
2022/10/23 07:43:40;;;;;;;12.93;10.18;;;;;;;13.89;100.00;99892.00;4994949;28;20049;-84
2022/10/23 07:46:08;;;;;;;12.88;10.27;;;;;;;13.86;100.00;99887.81;4994687;28;20034;-84
2022/10/23 07:48:34;;;;;;;14.88;10.25;;;;;;;13.71;100.00;99875.56;4994993;28;20022;-84
2022/10/23 07:51:06;;;;;;;12.50;10.52;;;;;;;13.65;100.00;99887.22;4995053;28;20386;-84
2022/10/23 07:53:32;;;;;;;13.55;11.80;;;;;;;13.67;100.00;99895.00;4995103;28;20014;-84
2022/10/23 07:56:01;;;;;;;12.18;10.85;;;;;;;13.71;100.00;99899.13;4977090;28;20157;-84
2022/10/23 07:58:27;;;;;;;11.13;10.02;;;;;;;13.70;100.00;99906.13;5002720;28;20030;-84
2022/10/23 08:00:57;;;;;;;13.57;11.40;;;;;;;13.59;100.00;99884.94;5014170;28;20105;-84
2022/10/23 08:03:23;;;;;;;11.85;10.60;;;;;;;13.53;100.00;99889.69;5014234;28;20018;-83
2022/10/23 08:05:49;;;;;;;12.40;10.35;;;;;;;13.48;100.00;99889.91;5014230;28;20026;-84
2022/10/23 08:08:14;;;;;;;11.60;10.20;;;;;;;13.53;100.00;99893.13;5014319;28;20025;-84
2022/10/23 08:10:40;;;;;;;12.07;10.68;;;;;;;13.65;100.00;99904.69;5014113;28;20064;-84
2022/10/23 08:13:08;;;;;;;15.48;11.95;;;;;;;13.72;100.00;99906.03;5013987;28;20112;-84
2022/10/23 08:15:34;;;;;;;14.90;10.98;;;;;;;13.79;100.00;99917.88;5013956;28;20022;-84
2022/10/23 08:17:59;;;;;;;13.65;11.10;;;;;;;13.84;100.00;99915.84;5013641;28;20084;-84
2022/10/23 08:20:25;;;;;;;13.52;11.75;;;;;;;13.95;100.00;99904.78;5014115;28;20471;-84
2022/10/23 08:22:50;;;;;;;12.13;10.93;;;;;;;14.11;100.00;99907.34;5013880;28;20092;-83
2022/10/23 08:25:16;;;;;;;15.45;11.30;;;;;;;14.28;100.00;99917.69;4991375;28;20044;-84
2022/10/23 08:27:41;;;;;;;15.52;11.95;;;;;;;14.39;100.00;99906.59;4991783;28;20034;-84
2022/10/23 08:30:07;;;;;;;12.52;11.15;;;;;;;14.57;100.00;99917.81;4991561;28;20036;-84
2022/10/23 08:32:32;;;;;;;12.43;10.95;;;;;;;14.57;100.00;99915.19;4975328;28;20034;-84
2022/10/23 08:34:58;;;;;;;12.52;11.20;;;;;;;14.59;100.00;99914.19;4975177;28;20488;-84
2022/10/23 08:37:23;;;;;;;13.63;10.68;;;;;;;14.61;100.00;99911.47;4975271;28;20429;-84
2022/10/23 08:39:48;;;;;;;16.65;12.52;;;;;;;14.54;100.00;99902.25;4991070;28;20038;-84
2022/10/23 08:42:24;;;;;;;13.40;12.00;;;;;;;14.54;100.00;99915.38;4991674;28;20050;-84
2022/10/23 08:45:24;;;;;;;14.43;12.27;;;;;;;14.36;100.00;99902.38;4991526;28;20050;-84
2022/10/23 08:47:54;;;;;;;16.40;13.15;;;;;;;14.31;100.00;99907.03;4876129;29;20059;-85
2022/10/23 08:50:29;;;;;;;14.32;12.80;;;;;;;14.22;100.00;99911.03;4876603;29;20119;-87
2022/10/23 08:53:17;;;;;;;17.33;13.27;;;;;;;14.12;100.00;99907.28;4876719;29;20106;-87
2022/10/23 08:55:57;;;;;;;15.80;13.18;;;;;;;14.01;100.00;99906.19;4882318;29;20480;-87
2022/10/23 08:58:49;;;;;;;14.70;12.63;;;;;;;14.03;100.00;99913.03;4879865;29;20043;-88
2022/10/23 09:01:33;;;;;;;14.80;12.00;;;;;;;14.08;100.00;99925.88;4879523;29;20036;-85
2022/10/23 09:03:59;;;;;;;14.48;12.32;;;;;;;14.04;100.00;99919.13;4894897;29;20364;-87
2022/10/23 09:06:48;;;;;;;14.07;12.35;;;;;;;14.09;100.00;99927.56;4879455;29;20039;-86
2022/10/23 09:09:21;;;;;;;16.10;13.10;;;;;;;14.08;100.00;99921.47;4879279;29;20766;-86
2022/10/23 09:12:05;;;;;;;17.50;12.68;;;;;;;14.15;100.00;99922.78;4895259;29;20043;-86
2022/10/23 09:14:39;;;;;;;15.63;12.77;;;;;;;14.14;100.00;99917.66;4895288;29;20024;-86
2022/10/23 09:17:28;;;;;;;15.90;11.88;;;;;;;14.25;100.00;99928.38;4895003;29;20044;-87
2022/10/23 09:20:04;;;;;;;19.73;12.77;;;;;;;14.29;100.00;99921.19;4894888;29;20546;-84
2022/10/23 09:22:29;;;;;;;13.82;12.38;;;;;;;14.32;100.00;99919.22;4904471;28;20043;-85
2022/10/23 09:24:55;;;;;;;15.93;11.80;;;;;;;14.40;100.00;99924.84;4993193;28;20363;-85
2022/10/23 09:27:20;;;;;;;13.82;11.77;;;;;;;14.43;100.00;99926.47;4975834;28;20050;-85
2022/10/23 09:29:52;;;;;;;18.52;11.75;;;;;;;14.47;100.00;99927.97;4993177;28;20501;-85
2022/10/23 09:32:19;;;;;;;13.57;12.13;;;;;;;14.47;100.00;99927.97;4992834;28;20105;-85
2022/10/23 09:34:53;;;;;;;12.95;11.15;;;;;;;14.46;100.00;99924.50;4993002;28;20018;-85
2022/10/23 09:37:29;;;;;;;12.20;10.88;;;;;;;14.57;100.00;99933.53;4975284;28;20422;-85
2022/10/23 09:40:15;;;;;;;12.02;10.75;;;;;;;14.60;100.00;99931.59;4993124;28;20470;-85
2022/10/23 09:43:12;;;;;;;12.48;9.88;;;;;;;14.56;100.00;99919.59;4992874;28;20018;-87
2022/10/23 09:45:41;;;;;;;12.27;10.50;;;;;;;14.58;100.00;99914.25;4992823;28;20033;-87
2022/10/23 09:48:15;;;;;;;10.85;9.75;;;;;;;14.63;100.00;99912.22;4992674;28;20381;-86
2022/10/23 09:50:47;;;;;;;12.02;9.27;;;;;;;14.68;100.00;99910.16;4991840;28;20378;-85
2022/10/23 09:53:17;;;;;;;11.35;10.15;;;;;;;14.77;100.00;99922.72;4975174;28;20073;-85
2022/10/23 09:55:50;;;;;;;11.73;10.27;;;;;;;14.75;100.00;99913.25;4992549;28;20482;-87
2022/10/23 09:58:37;;;;;;;10.35;8.73;;;;;;;14.84;100.00;99913.56;4974955;28;20025;-87
2022/10/23 10:01:03;;;;;;;10.10;7.53;;;;;;;14.82;100.00;99902.31;4992413;28;20026;-87
2022/10/23 10:03:29;;;;;;;8.20;7.05;;;;;;;14.89;100.00;99906.25;4992654;28;20023;-87
2022/10/23 10:06:00;;;;;;;9.70;7.03;;;;;;;15.03;100.00;99910.66;4992614;28;20027;-87
2022/10/23 10:08:39;;;;;;;9.80;6.90;;;;;;;15.11;100.00;99908.41;4992980;28;20022;-87
2022/10/23 10:11:17;;;;;;;7.97;7.18;;;;;;;15.13;100.00;99903.94;4992529;28;20144;-87
2022/10/23 10:14:20;;;;;;;8.82;7.30;;;;;;;15.22;100.00;99919.09;4975155;28;20038;-88
2022/10/23 10:17:12;;;;;;;9.50;6.45;;;;;;;15.23;100.00;99906.84;4992520;28;20026;-87
2022/10/23 10:19:52;;;;;;;7.32;6.32;;;;;;;15.25;100.00;99902.31;4993175;28;20031;-87
2022/10/23 10:22:40;;;;;;;7.82;6.35;;;;;;;15.30;100.00;99900.28;5006289;28;20056;-87
2022/10/23 10:25:32;;;;;;;15.07;8.95;;;;;;;15.29;100.00;99890.69;5012017;28;20061;-86
2022/10/23 10:28:07;;;;;;;8.95;7.40;;;;;;;15.32;100.00;99874.75;5012283;28;20026;-86
2022/10/23 10:30:46;;;;;;;7.88;7.03;;;;;;;15.32;100.00;99877.38;5012498;28;20022;-84
2022/10/23 10:33:33;;;;;;;11.40;9.48;;;;;;;15.41;100.00;99882.06;5011923;28;20022;-87
2022/10/23 10:36:22;;;;;;;7.47;5.95;;;;;;;15.39;100.00;99868.19;4994411;28;20481;-87
2022/10/23 10:38:52;;;;;;;8.38;5.50;;;;;;;15.43;100.00;99876.72;4951175;29;20044;-86
2022/10/23 10:41:34;;;;;;;5.80;4.73;;;;;;;15.52;100.00;99883.19;4951023;29;20035;-85
2022/10/23 10:44:28;;;;;;;6.05;5.10;;;;;;;15.55;100.00;99872.47;4949657;29;20098;-86
2022/10/23 10:47:15;;;;;;;5.85;5.07;;;;;;;15.68;100.00;99873.41;4898607;29;20032;-86
2022/10/23 10:50:01;;;;;;;6.65;5.25;;;;;;;15.69;100.00;99868.06;4912879;29;20051;-86
2022/10/23 10:52:47;;;;;;;8.75;6.18;;;;;;;15.69;100.00;99867.22;4913107;29;20033;-87
2022/10/23 10:55:38;;;;;;;9.02;6.57;;;;;;;15.64;100.00;99867.53;4912776;29;20044;-86
2022/10/23 10:58:14;;;;;;;6.47;5.38;;;;;;;15.60;100.00;99862.53;4912732;29;20024;-86
2022/10/23 11:00:42;;;;;;;8.18;5.00;;;;;;;15.53;100.00;99850.72;4897171;29;20048;-86
2022/10/23 11:03:10;;;;;;;7.25;5.32;;;;;;;15.65;100.00;99863.94;4915398;29;20032;-86
2022/10/23 11:05:45;;;;;;;7.00;5.32;;;;;;;15.63;100.00;99847.44;4918358;29;20421;-85
2022/10/23 11:08:20;;;;;;;7.40;5.25;;;;;;;15.71;100.00;99852.19;4935367;29;20036;-85
2022/10/23 11:10:51;;;;;;;7.80;5.40;;;;;;;15.69;100.00;99844.44;4935236;29;20356;-84
2022/10/23 11:13:36;;;;;;;8.73;6.13;;;;;;;15.75;100.00;99855.47;4935140;29;20025;-83
2022/10/23 11:16:10;;;;;;;6.25;5.15;;;;;;;15.79;100.00;99859.59;4951312;28;20046;-84
2022/10/23 11:18:39;;;;;;;8.68;5.55;;;;;;;15.85;100.00;99849.53;4995455;28;20014;-84
2022/10/23 11:21:21;;;;;;;7.47;5.50;;;;;;;15.88;100.00;99838.81;4995422;28;20033;-84
2022/10/23 11:23:56;;;;;;;9.07;5.32;;;;;;;15.94;100.00;99840.22;4996281;28;20430;-86
2022/10/23 11:26:51;;;;;;;12.32;5.75;;;;;;;16.04;100.00;99848.31;4993913;28;20477;-85
2022/10/23 11:29:23;;;;;;;6.57;5.88;;;;;;;16.07;100.00;99843.69;4995215;28;20386;-85
2022/10/23 11:32:00;;;;;;;7.43;6.60;;;;;;;16.08;100.00;99848.00;4995079;28;20034;-85
2022/10/23 11:34:44;;;;;;;10.75;6.63;;;;;;;16.08;100.00;99849.81;4995219;28;20022;-85